Time;durP1;ratioP1;P1;durP2;ratioP2;P2;SDS_P1;SDS_P2;PMS_P1;PMS_P2;Temp;Humidity;BMP_temperature;BMP_pressure;BME280_temperature;BME280_humidity;BME280_pressure;Samples;Min_cycle;Max_cycle;Signal;HPM_P1;HPM_P2
2023/04/05 00:00:46;;;;;;;11.33;10.23;;;-0.60;99.90;;;-0.13;79.54;98486.81;5243643;28;20661;-63
2023/04/05 00:03:19;;;;;;;11.57;10.50;;;-0.70;99.90;;;-0.20;80.52;98491.91;5236387;28;20273;-63
2023/04/05 00:05:53;;;;;;;11.97;10.97;;;-0.70;99.90;;;-0.30;80.73;98494.13;5232916;28;20380;-64
2023/04/05 00:08:27;;;;;;;11.87;10.63;;;-0.80;99.90;;;-0.25;80.93;98493.03;5230922;28;20287;-64
2023/04/05 00:11:01;;;;;;;14.00;11.30;;;-0.80;99.90;;;-0.31;82.02;98493.25;5237545;28;20206;-64
2023/04/05 00:13:34;;;;;;;12.47;11.20;;;-0.90;99.90;;;-0.33;81.93;98486.28;5232217;28;20199;-63
2023/04/05 00:16:08;;;;;;;13.07;11.77;;;-0.90;99.90;;;-0.24;82.06;98484.75;5226540;28;20232;-63
2023/04/05 00:18:44;;;;;;;11.77;10.67;;;-0.80;99.90;;;-0.22;81.64;98484.94;5235308;28;20203;-65
2023/04/05 00:21:20;;;;;;;11.83;10.63;;;-0.80;99.90;;;-0.11;82.46;98482.84;5232918;28;20316;-63
2023/04/05 00:23:57;;;;;;;11.40;10.40;;;-0.70;99.90;;;-0.07;82.08;98479.94;5226344;28;20369;-65
2023/04/05 00:26:31;;;;;;;11.00;10.00;;;-0.70;99.90;;;-0.13;81.72;98483.41;5233506;28;20637;-65
2023/04/05 00:29:04;;;;;;;13.33;11.53;;;-0.70;99.90;;;-0.24;81.96;98474.72;5237058;28;20768;-64
2023/04/05 00:31:37;;;;;;;11.77;10.70;;;-0.80;99.90;;;-0.27;81.25;98474.38;5236002;28;20200;-63
2023/04/05 00:34:11;;;;;;;13.00;11.80;;;-0.80;99.90;;;-0.22;82.16;98473.25;5234295;28;20801;-65
2023/04/05 00:36:44;;;;;;;12.60;11.30;;;-0.80;99.90;;;-0.31;81.67;98468.13;5231719;28;20199;-65
2023/04/05 00:39:17;;;;;;;12.53;11.33;;;-0.90;99.90;;;-0.29;81.88;98464.16;5237186;28;20292;-64
2023/04/05 00:41:51;;;;;;;12.67;11.37;;;-0.80;99.90;;;-0.28;82.20;98453.41;5233061;28;20209;-64
2023/04/05 00:44:25;;;;;;;12.47;11.37;;;-0.90;99.90;;;-0.31;82.71;98462.22;5231730;28;20224;-64
2023/04/05 00:46:58;;;;;;;13.07;11.97;;;-0.90;99.90;;;-0.38;81.52;98460.66;5228891;28;20739;-65
2023/04/05 00:49:35;;;;;;;12.03;10.93;;;-0.90;99.90;;;-0.36;81.79;98463.34;5226300;28;20205;-65
2023/04/05 00:52:08;;;;;;;12.13;11.13;;;-1.00;99.90;;;-0.35;82.11;98462.59;5237862;28;20197;-64
2023/04/05 00:54:42;;;;;;;11.90;10.80;;;-0.90;99.90;;;-0.39;82.52;98458.88;5237649;28;20680;-66
2023/04/05 00:57:17;;;;;;;12.57;11.47;;;-1.00;99.90;;;-0.32;82.79;98452.88;5232448;28;20210;-63
2023/04/05 00:59:50;;;;;;;12.30;11.20;;;-0.90;99.90;;;-0.42;82.40;98452.66;5229673;28;20676;-63
2023/04/05 01:02:32;;;;;;;12.57;11.47;;;-1.00;99.90;;;-0.54;82.69;98448.06;5229794;28;20205;-65
2023/04/05 01:05:15;;;;;;;13.23;11.90;;;-1.10;99.90;;;-0.51;82.56;98448.41;5240699;28;20330;-64
2023/04/05 01:07:58;;;;;;;13.00;11.80;;;-1.10;99.90;;;-0.53;83.01;98444.81;5235426;28;20208;-65
2023/04/05 01:10:37;;;;;;;13.03;11.93;;;-1.10;99.90;;;-0.57;83.47;98442.72;5236209;28;20199;-65
2023/04/05 01:13:13;;;;;;;13.77;12.47;;;-1.10;99.90;;;-0.55;82.53;98437.84;5237239;28;20282;-64
2023/04/05 01:15:46;;;;;;;13.90;12.60;;;-1.10;99.90;;;-0.66;84.25;98434.16;5237799;28;20220;-65
2023/04/05 01:18:20;;;;;;;13.67;12.37;;;-1.20;99.90;;;-0.67;83.18;98432.38;5233892;28;20212;-64
2023/04/05 01:21:01;;;;;;;14.47;13.27;;;-1.20;99.90;;;-0.75;84.25;98425.63;5234656;28;21079;-63
2023/04/05 01:23:45;;;;;;;13.63;12.23;;;-1.30;99.90;;;-0.78;83.23;98421.16;5233888;28;20212;-64
2023/04/05 01:26:48;;;;;;;13.17;11.97;;;-1.30;99.90;;;-0.83;84.93;98422.31;5230679;28;20221;-64
2023/04/05 01:29:51;;;;;;;13.90;12.50;;;-1.30;99.90;;;-0.73;83.03;98415.03;5231751;28;20189;-64
2023/04/05 01:32:45;;;;;;;13.90;12.67;;;-1.30;99.90;;;-0.73;82.86;98424.19;5232999;28;20196;-64
2023/04/05 01:35:25;;;;;;;13.73;12.40;;;-1.30;99.90;;;-0.79;83.51;98411.00;5229413;28;20220;-65
2023/04/05 01:38:03;;;;;;;13.77;12.57;;;-1.30;99.90;;;-0.74;84.33;98407.38;5235827;28;20193;-64
2023/04/05 01:40:37;;;;;;;13.50;12.30;;;-1.30;99.90;;;-0.71;84.35;98412.72;5237333;28;20207;-64
2023/04/05 01:43:14;;;;;;;13.57;12.37;;;-1.30;99.90;;;-0.71;84.57;98407.69;5233468;28;20253;-64
2023/04/05 01:45:49;;;;;;;13.77;12.37;;;-1.30;99.90;;;-0.63;84.47;98401.91;5241198;28;20458;-63
2023/04/05 01:48:22;;;;;;;14.13;12.87;;;-1.20;99.90;;;-0.57;85.40;98412.59;5242208;28;20232;-65
2023/04/05 01:50:55;;;;;;;14.57;13.17;;;-1.20;99.90;;;-0.50;85.57;98404.97;5241949;28;20285;-63
2023/04/05 01:53:28;;;;;;;13.87;12.57;;;-1.10;99.90;;;-0.48;84.80;98406.06;5237788;28;20795;-65
2023/04/05 01:56:02;;;;;;;15.20;13.70;;;-1.10;99.90;;;-0.43;86.27;98395.59;5237163;28;20312;-63
2023/04/05 01:58:35;;;;;;;14.10;12.87;;;-1.10;99.90;;;-0.46;85.71;98394.56;5237866;28;20557;-64
2023/04/05 02:01:09;;;;;;;14.20;12.90;;;-1.10;99.90;;;-0.52;85.64;98393.88;5240120;28;20204;-64
2023/04/05 02:03:42;;;;;;;13.30;12.10;;;-1.10;99.90;;;-0.47;86.12;98392.75;5242002;28;20656;-63
2023/04/05 02:06:15;;;;;;;14.30;12.90;;;-1.10;99.90;;;-0.46;85.15;98398.66;5241529;28;20311;-64
2023/04/05 02:08:48;;;;;;;14.53;13.23;;;-1.10;99.90;;;-0.45;86.42;98397.97;5235227;28;20583;-63
2023/04/05 02:11:21;;;;;;;12.97;11.87;;;-1.10;99.90;;;-0.47;85.93;98395.28;5234973;28;20397;-64
2023/04/05 02:13:54;;;;;;;15.03;13.53;;;-1.20;99.90;;;-0.47;86.14;98390.25;5240602;28;20554;-64
2023/04/05 02:16:32;;;;;;;13.47;12.07;;;-1.20;99.90;;;-0.41;85.66;98397.56;5242293;28;20209;-64
2023/04/05 02:19:05;;;;;;;14.07;12.67;;;-1.20;99.90;;;-0.49;86.67;98395.84;5238154;28;20206;-64
2023/04/05 02:21:39;;;;;;;13.23;12.03;;;-1.20;99.90;;;-0.58;86.26;98385.69;5240158;28;20211;-65
2023/04/05 02:24:12;;;;;;;14.33;12.43;;;-1.30;99.90;;;-0.54;87.06;98385.31;5233891;28;20220;-64
2023/04/05 02:26:45;;;;;;;13.40;12.10;;;-1.30;99.90;;;-0.56;86.86;98385.88;5232281;28;20204;-64
2023/04/05 02:29:18;;;;;;;14.47;13.13;;;-1.30;99.90;;;-0.61;87.03;98384.47;5234002;28;20306;-64
2023/04/05 02:31:53;;;;;;;14.27;12.87;;;-1.30;99.90;;;-0.64;87.31;98389.16;5233318;28;20206;-64
2023/04/05 02:34:26;;;;;;;14.10;12.70;;;-1.30;99.90;;;-0.64;88.03;98395.06;5234063;28;20216;-65
2023/04/05 02:37:00;;;;;;;13.33;12.03;;;-1.30;99.90;;;-0.59;87.59;98393.97;5234862;28;20200;-63
2023/04/05 02:39:33;;;;;;;12.67;11.40;;;-1.40;99.90;;;-0.59;87.18;98390.56;5243432;28;20617;-64
2023/04/05 02:42:06;;;;;;;12.57;11.27;;;-1.40;99.90;;;-0.59;86.95;98391.44;5244499;28;20679;-64
2023/04/05 02:44:39;;;;;;;12.67;11.47;;;-1.50;99.90;;;-0.68;85.74;98387.94;5238360;28;20236;-64
2023/04/05 02:47:20;;;;;;;12.17;11.17;;;-1.50;99.90;;;-0.71;86.49;98387.63;5237342;28;20200;-64
2023/04/05 02:49:53;;;;;;;12.27;11.23;;;-1.50;99.90;;;-0.75;89.07;98380.47;5230384;28;20211;-65
2023/04/05 02:52:26;;;;;;;12.67;11.50;;;-1.50;99.90;;;-0.73;87.21;98379.03;5238202;28;20299;-64
2023/04/05 02:54:59;;;;;;;12.17;11.20;;;-1.50;99.90;;;-0.75;88.00;98377.97;5238066;28;20216;-65
2023/04/05 02:57:32;;;;;;;12.83;11.73;;;-1.50;99.90;;;-0.74;88.83;98379.75;5242175;28;20204;-64
2023/04/05 03:00:07;;;;;;;11.50;10.50;;;-1.50;99.90;;;-0.80;87.96;98371.53;5239619;28;20220;-65
2023/04/05 03:02:42;;;;;;;12.17;10.97;;;-1.50;99.90;;;-0.85;88.31;98367.66;5238804;28;20207;-65
2023/04/05 03:05:17;;;;;;;13.77;12.57;;;-1.60;99.90;;;-0.84;88.08;98372.84;5236851;28;20367;-64
2023/04/05 03:07:50;;;;;;;12.60;11.60;;;-1.60;99.90;;;-0.87;87.72;98377.53;5236770;28;20200;-64
2023/04/05 03:10:24;;;;;;;14.57;13.07;;;-1.70;99.90;;;-0.91;89.30;98368.78;5236392;28;20263;-64
2023/04/05 03:12:57;;;;;;;12.93;11.63;;;-1.70;99.90;;;-0.89;88.18;98375.56;5237577;28;20210;-65
2023/04/05 03:15:32;;;;;;;13.27;11.97;;;-1.60;99.90;;;-0.91;89.02;98373.78;5237177;28;20721;-64
2023/04/05 03:18:09;;;;;;;13.97;12.67;;;-1.70;99.90;;;-1.03;88.41;98377.50;5241561;28;20204;-64
2023/04/05 03:20:44;;;;;;;12.73;11.53;;;-1.80;99.90;;;-1.03;88.36;98371.56;5230877;28;20213;-64
2023/04/05 03:23:17;;;;;;;13.23;12.13;;;-1.80;99.90;;;-1.03;87.72;98369.97;5231635;28;20284;-65
2023/04/05 03:25:51;;;;;;;13.33;12.13;;;-1.80;99.90;;;-1.04;89.28;98362.25;5232234;28;20536;-64
2023/04/05 03:28:24;;;;;;;12.53;11.37;;;-1.80;99.90;;;-1.11;88.94;98360.69;5233103;28;20256;-65
2023/04/05 03:30:57;;;;;;;12.30;11.10;;;-1.90;99.90;;;-1.18;88.07;98361.63;5236481;28;20519;-64
2023/04/05 03:33:32;;;;;;;11.33;10.33;;;-1.90;99.90;;;-1.33;88.20;98364.06;5239174;28;20740;-63
2023/04/05 03:36:05;;;;;;;12.50;11.20;;;-2.00;99.90;;;-1.29;88.71;98366.19;5235404;28;20222;-65
2023/04/05 03:38:39;;;;;;;11.63;10.63;;;-2.00;99.90;;;-1.29;89.01;98363.69;5235115;28;20205;-65
2023/04/05 03:41:15;;;;;;;13.67;12.27;;;-2.00;99.90;;;-1.25;88.10;98364.19;5233520;28;20193;-64
2023/04/05 03:43:48;;;;;;;12.13;11.03;;;-2.00;99.90;;;-1.28;88.26;98366.38;5233108;28;20197;-63
2023/04/05 03:46:21;;;;;;;12.03;10.97;;;-2.00;99.90;;;-1.22;88.85;98358.63;5236905;28;20750;-63
2023/04/05 03:48:57;;;;;;;13.13;11.83;;;-1.90;99.90;;;-1.14;89.01;98362.88;5233052;28;20196;-65
2023/04/05 03:51:31;;;;;;;12.57;11.47;;;-1.90;99.90;;;-1.16;89.27;98361.81;5240296;28;20197;-64
2023/04/05 03:54:05;;;;;;;12.10;11.00;;;-1.90;99.90;;;-1.15;88.13;98361.06;5235966;28;20197;-62
2023/04/05 03:56:38;;;;;;;12.93;11.63;;;-1.90;99.90;;;-1.15;89.42;98361.06;5231001;28;20201;-64
2023/04/05 03:59:11;;;;;;;12.43;11.30;;;-1.90;99.90;;;-1.13;89.34;98360.53;5239118;28;20196;-64
2023/04/05 04:01:44;;;;;;;13.07;11.87;;;-1.90;99.90;;;-1.14;88.20;98363.75;5233931;28;20335;-64
2023/04/05 04:04:18;;;;;;;12.27;11.07;;;-1.90;99.90;;;-1.20;89.26;98362.22;5235787;28;20251;-63
2023/04/05 04:06:51;;;;;;;13.53;12.23;;;-2.00;99.90;;;-1.26;88.52;98356.50;5232657;28;20452;-63
2023/04/05 04:09:26;;;;;;;13.13;12.03;;;-2.00;99.90;;;-1.25;88.32;98359.19;5236003;28;20197;-65
2023/04/05 04:11:59;;;;;;;12.83;11.67;;;-2.00;99.90;;;-1.28;89.60;98362.97;5236893;28;20211;-63
2023/04/05 04:14:35;;;;;;;12.30;11.20;;;-2.00;99.90;;;-1.27;88.93;98364.75;5239030;28;20220;-62
2023/04/05 04:17:08;;;;;;;12.00;10.80;;;-2.00;99.90;;;-1.27;89.34;98359.72;5235310;28;20299;-64
2023/04/05 04:19:42;;;;;;;11.90;10.77;;;-2.10;99.90;;;-1.34;88.67;98357.25;5237673;28;20679;-63
2023/04/05 04:22:19;;;;;;;12.53;11.43;;;-2.10;99.90;;;-1.41;88.89;98366.63;5240137;28;20211;-64
2023/04/05 04:24:53;;;;;;;11.40;10.30;;;-2.20;99.90;;;-1.45;89.75;98363.63;5232419;28;20240;-63
2023/04/05 04:27:29;;;;;;;10.80;9.90;;;-2.20;99.90;;;-1.53;89.92;98364.38;5238513;28;20198;-64
2023/04/05 04:30:03;;;;;;;11.63;10.53;;;-2.20;99.90;;;-1.59;89.77;98375.50;5230355;28;20196;-64
2023/04/05 04:32:51;;;;;;;11.67;10.57;;;-2.30;99.90;;;-1.54;90.22;98363.50;5241449;28;20199;-63
2023/04/05 04:35:28;;;;;;;11.73;10.53;;;-2.30;99.90;;;-1.49;90.17;98372.38;5233815;28;20240;-64
2023/04/05 04:38:03;;;;;;;12.03;10.90;;;-2.30;99.90;;;-1.56;89.67;98374.94;5226920;28;20200;-63
2023/04/05 04:40:38;;;;;;;11.73;10.70;;;-2.30;99.90;;;-1.60;89.90;98378.75;5230654;28;20226;-64
2023/04/05 04:43:16;;;;;;;11.70;10.50;;;-2.30;99.90;;;-1.66;90.13;98372.13;5231494;28;20207;-64
2023/04/05 04:45:53;;;;;;;12.10;11.10;;;-2.30;99.90;;;-1.62;90.79;98376.78;5239909;28;20654;-64
2023/04/05 04:48:26;;;;;;;11.23;10.10;;;-2.40;99.90;;;-1.80;89.08;98375.63;5234435;28;20235;-64
2023/04/05 04:51:03;;;;;;;11.57;10.47;;;-2.50;99.90;;;-1.78;89.30;98378.28;5235104;28;20645;-64
2023/04/05 04:53:36;;;;;;;11.57;10.57;;;-2.50;99.90;;;-1.78;88.76;98375.78;5241418;28;20682;-64
2023/04/05 04:56:10;;;;;;;15.20;12.63;;;-2.50;99.90;;;-1.81;90.29;98377.22;5243419;28;20280;-63
2023/04/05 04:58:43;;;;;;;14.40;12.90;;;-2.50;99.90;;;-1.72;90.14;98381.47;5241161;28;20566;-63
2023/04/05 05:01:17;;;;;;;13.40;12.10;;;-2.40;99.90;;;-1.72;90.31;98376.47;5246207;28;20656;-64
2023/04/05 05:03:50;;;;;;;13.60;11.57;;;-2.40;99.90;;;-1.66;89.43;98378.06;5238821;28;20207;-65
2023/04/05 05:06:25;;;;;;;12.50;11.20;;;-2.30;99.90;;;-1.71;90.57;98374.13;5237296;28;20307;-64
2023/04/05 05:08:58;;;;;;;12.93;11.73;;;-2.40;99.90;;;-1.64;89.73;98374.09;5236682;28;20207;-64
2023/04/05 05:11:32;;;;;;;12.97;11.60;;;-2.30;99.90;;;-1.63;90.88;98372.47;5231736;28;20204;-63
2023/04/05 05:14:05;;;;;;;12.97;11.73;;;-2.30;99.90;;;-1.62;89.69;98370.16;5233204;28;20227;-64
2023/04/05 05:16:38;;;;;;;13.27;11.97;;;-2.30;99.90;;;-1.67;90.16;98375.38;5236054;28;20209;-65
2023/04/05 05:19:11;;;;;;;12.70;11.37;;;-2.30;99.90;;;-1.68;90.35;98373.59;5240819;28;20231;-64
2023/04/05 05:21:48;;;;;;;13.50;12.30;;;-2.30;99.90;;;-1.64;90.22;98371.59;5233845;28;20200;-63
2023/04/05 05:24:21;;;;;;;13.80;12.40;;;-2.30;99.90;;;-1.52;90.04;98367.03;5236652;28;20248;-64
2023/04/05 05:26:54;;;;;;;14.13;12.67;;;-2.20;99.90;;;-1.48;90.42;98368.28;5233682;28;20222;-65
2023/04/05 05:29:27;;;;;;;13.93;12.73;;;-2.10;99.90;;;-1.41;90.70;98371.63;5237025;28;20193;-63
2023/04/05 05:32:00;;;;;;;13.13;11.87;;;-2.10;99.90;;;-1.36;89.46;98375.53;5222786;28;20196;-64
2023/04/05 05:34:33;;;;;;;14.63;13.33;;;-2.00;99.90;;;-1.30;89.63;98374.44;5237291;28;20316;-65
2023/04/05 05:37:08;;;;;;;14.10;12.70;;;-2.00;99.90;;;-1.25;91.23;98374.22;5244213;28;20196;-64
2023/04/05 05:39:43;;;;;;;13.43;12.20;;;-1.90;99.90;;;-1.23;90.93;98377.81;5239179;28;20660;-64
2023/04/05 05:42:16;;;;;;;13.37;12.17;;;-1.90;99.90;;;-1.06;90.93;98377.16;5236509;28;20204;-64
2023/04/05 05:44:49;;;;;;;13.10;11.80;;;-1.80;99.90;;;-0.74;90.74;98377.25;5230521;28;20225;-64
2023/04/05 05:47:22;;;;;;;13.90;12.50;;;-1.60;99.90;;;-0.37;88.04;98381.19;5232143;28;20223;-64
2023/04/05 05:49:55;;;;;;;12.87;11.77;;;-1.40;99.90;;;-0.04;86.63;98374.72;5229495;28;20292;-64
2023/04/05 05:52:29;;;;;;;11.97;10.77;;;-1.20;99.90;;;0.35;85.88;98383.81;5233441;28;20588;-64
2023/04/05 05:55:03;;;;;;;12.83;11.73;;;-0.90;99.90;;;0.62;83.54;98383.25;5232739;28;20235;-64
2023/04/05 05:57:37;;;;;;;12.03;10.83;;;-0.80;99.90;;;1.03;80.69;98384.06;5240533;28;20653;-64
2023/04/05 06:00:12;;;;;;;11.90;10.77;;;-0.40;99.90;;;1.23;81.66;98379.47;5240110;28;20208;-64
2023/04/05 06:02:45;;;;;;;11.87;10.77;;;-0.20;99.90;;;1.65;79.65;98392.03;5233871;28;20200;-64
2023/04/05 06:05:18;;;;;;;12.00;10.90;;;0.20;99.90;;;2.04;78.29;98379.09;5230987;28;20244;-64
2023/04/05 06:07:52;;;;;;;12.93;11.63;;;0.50;99.90;;;2.40;77.45;98368.25;5225858;28;20225;-64
2023/04/05 06:10:25;;;;;;;11.77;10.57;;;0.70;99.90;;;2.88;74.73;98374.56;5233395;28;20212;-63
2023/04/05 06:12:58;;;;;;;12.00;10.90;;;1.00;99.90;;;3.04;69.51;98371.88;5230460;28;20204;-64
2023/04/05 06:15:32;;;;;;;12.27;11.07;;;1.30;99.90;;;2.93;69.42;98372.50;5233786;28;20350;-65
2023/04/05 06:18:05;;;;;;;12.67;11.33;;;1.20;99.90;;;2.97;69.92;98373.66;5226288;28;20201;-64
2023/04/05 06:20:39;;;;;;;11.83;10.73;;;1.30;99.90;;;2.89;70.92;98375.47;5226330;28;20283;-64
2023/04/05 06:23:14;;;;;;;12.27;11.17;;;1.30;99.90;;;2.53;70.33;98372.88;5229727;28;20846;-64
2023/04/05 06:25:47;;;;;;;11.70;10.60;;;1.20;99.90;;;2.75;71.53;98370.72;5235971;28;20223;-63
2023/04/05 06:28:20;;;;;;;12.13;10.93;;;1.30;99.90;;;3.20;71.02;98363.19;5230006;28;20224;-64
2023/04/05 06:30:58;;;;;;;13.50;12.10;;;1.50;99.90;;;3.66;68.37;98364.91;5235384;28;20208;-64
2023/04/05 06:33:31;;;;;;;13.03;11.80;;;1.90;99.90;;;4.13;66.77;98368.34;5241046;28;20203;-64
2023/04/05 06:36:04;;;;;;;12.27;11.10;;;2.30;99.90;;;4.43;63.94;98368.53;5235569;28;20593;-65
2023/04/05 06:38:38;;;;;;;12.80;11.50;;;2.50;99.90;;;4.74;62.32;98372.13;5238417;28;20293;-64
2023/04/05 06:41:12;;;;;;;12.00;10.90;;;2.70;99.90;;;4.97;62.36;98373.25;5235862;28;20204;-65
2023/04/05 06:43:45;;;;;;;12.83;11.53;;;2.90;99.90;;;5.01;59.71;98371.88;5240607;28;20210;-64
2023/04/05 06:46:18;;;;;;;13.00;11.70;;;3.20;99.90;;;5.08;58.57;98371.66;5241810;28;20252;-64
2023/04/05 06:48:52;;;;;;;12.93;11.63;;;3.20;99.90;;;5.20;60.75;98372.69;5241711;28;20210;-64
2023/04/05 06:51:25;;;;;;;13.03;11.63;;;3.40;99.90;;;5.32;58.51;98371.25;5238480;28;20198;-64
2023/04/05 06:54:00;;;;;;;12.30;11.13;;;3.60;99.90;;;5.73;58.04;98363.69;5237290;28;20230;-64
2023/04/05 06:56:33;;;;;;;12.10;10.90;;;3.80;99.90;;;6.11;55.97;98367.66;5238439;28;20715;-64
2023/04/05 06:59:06;;;;;;;11.57;10.47;;;4.00;99.90;;;6.09;57.12;98365.00;5242162;28;20211;-64
2023/04/05 07:01:39;;;;;;;11.50;10.30;;;4.30;99.90;;;6.15;54.39;98368.03;5242266;28;20614;-63
2023/04/05 07:04:12;;;;;;;12.00;10.77;;;4.30;99.90;;;6.26;53.98;98361.31;5241866;28;20831;-64
2023/04/05 07:06:45;;;;;;;11.63;10.53;;;4.50;99.70;;;6.47;54.04;98367.25;5239403;28;20215;-64
2023/04/05 07:09:21;;;;;;;11.83;10.60;;;4.50;99.90;;;7.07;54.33;98364.38;5242586;28;20219;-62
2023/04/05 07:11:55;;;;;;;10.70;9.80;;;4.70;99.90;;;7.45;53.39;98357.19;5244774;28;20223;-64
2023/04/05 07:14:29;;;;;;;11.23;10.33;;;4.90;99.90;;;7.98;50.70;98357.81;5236794;28;20235;-64
2023/04/05 07:17:04;;;;;;;11.47;10.47;;;5.00;99.20;;;8.23;49.82;98360.56;5240869;28;20200;-64
2023/04/05 07:19:37;;;;;;;11.23;10.17;;;5.30;99.30;;;8.30;49.44;98359.38;5241132;28;20196;-63
2023/04/05 07:22:10;;;;;;;11.17;10.07;;;5.40;98.30;;;8.53;50.68;98361.09;5237488;28;20228;-64
2023/04/05 07:24:47;;;;;;;11.60;10.50;;;5.70;98.90;;;8.05;48.83;98357.53;5251004;28;20255;-64
2023/04/05 07:27:20;;;;;;;10.93;10.03;;;5.60;96.90;;;7.85;48.51;98355.16;5244972;28;20223;-64
2023/04/05 07:29:53;;;;;;;11.07;10.17;;;5.60;96.60;;;8.17;48.71;98359.22;5250803;28;20207;-62
2023/04/05 07:32:26;;;;;;;10.90;9.87;;;5.80;96.90;;;7.70;50.44;98347.25;5251569;28;20197;-65
2023/04/05 07:34:59;;;;;;;11.37;10.47;;;5.90;97.00;;;7.68;51.77;98351.31;5241768;28;21429;-64
2023/04/05 07:37:32;;;;;;;11.73;10.73;;;5.90;97.30;;;7.85;49.58;98350.06;5251517;28;20200;-65
2023/04/05 07:40:09;;;;;;;11.60;10.50;;;5.90;96.50;;;8.04;50.35;98348.13;5242666;28;20637;-64
2023/04/05 07:42:42;;;;;;;10.73;9.83;;;6.10;96.60;;;8.02;51.93;98349.66;5230705;28;20237;-64
2023/04/05 07:45:15;;;;;;;11.37;10.37;;;6.30;97.00;;;7.85;49.87;98355.16;5228829;28;20219;-64
2023/04/05 07:47:48;;;;;;;10.30;9.50;;;6.20;95.80;;;7.82;49.86;98355.81;5229182;28;20220;-64
2023/04/05 07:50:21;;;;;;;10.93;9.93;;;6.20;96.00;;;8.18;48.79;98358.44;5236040;28;20663;-63
2023/04/05 07:52:55;;;;;;;11.37;10.27;;;6.60;95.80;;;8.13;50.19;98355.56;5228967;28;20209;-64
2023/04/05 07:55:29;;;;;;;10.73;9.73;;;6.70;95.40;;;8.35;49.90;98347.81;5232664;28;20217;-63
2023/04/05 07:58:02;;;;;;;10.50;9.60;;;7.00;94.70;;;8.51;50.08;98358.41;5233976;28;20196;-64
2023/04/05 08:00:35;;;;;;;9.83;9.03;;;7.10;95.60;;;8.64;48.63;98361.84;5228659;28;20219;-64
2023/04/05 08:03:08;;;;;;;9.93;9.07;;;7.20;94.20;;;8.34;45.88;98353.72;5232077;28;20200;-64
2023/04/05 08:05:41;;;;;;;10.13;9.23;;;7.00;92.00;;;8.35;46.68;98355.47;5238762;28;20217;-63
2023/04/05 08:08:14;;;;;;;9.33;8.53;;;7.00;92.90;;;8.53;46.21;98350.91;5227614;28;20220;-64
2023/04/05 08:10:49;;;;;;;9.07;8.37;;;7.30;92.40;;;8.71;44.34;98353.88;5236095;28;20200;-64
2023/04/05 08:13:22;;;;;;;8.80;8.10;;;7.60;90.80;;;8.98;43.15;98349.84;5241587;28;20196;-64
2023/04/05 08:15:56;;;;;;;9.20;8.40;;;7.90;89.50;;;8.92;43.78;98347.75;5243872;28;20228;-64
2023/04/05 08:18:29;;;;;;;7.87;7.07;;;8.00;90.50;;;9.05;42.30;98335.91;5232811;28;20292;-63
2023/04/05 08:21:02;;;;;;;8.23;7.63;;;8.00;87.50;;;9.20;40.92;98349.72;5239152;28;20242;-64
2023/04/05 08:23:35;;;;;;;9.07;8.20;;;8.10;84.80;;;9.24;41.82;98336.38;5235883;28;20201;-64
2023/04/05 08:26:09;;;;;;;7.43;6.87;;;8.20;87.00;;;9.60;37.81;98338.03;5234304;28;20232;-63
2023/04/05 08:28:43;;;;;;;7.03;6.33;;;8.70;81.30;;;9.66;36.44;98337.59;5235609;28;20595;-63
2023/04/05 08:31:16;;;;;;;8.10;7.33;;;8.80;77.20;;;9.46;39.49;98344.75;5242706;28;20196;-64
2023/04/05 08:33:49;;;;;;;7.63;7.03;;;8.50;82.00;;;9.71;38.80;98331.13;5236577;28;20884;-64
2023/04/05 08:36:22;;;;;;;7.43;6.83;;;8.80;81.50;;;9.79;39.94;98329.97;5242017;28;20247;-64
2023/04/05 08:38:55;;;;;;;8.43;7.67;;;8.90;83.30;;;9.87;40.36;98336.50;5238748;28;20200;-64
2023/04/05 08:41:35;;;;;;;7.53;6.90;;;9.00;83.30;;;9.83;39.20;98331.06;5235639;28;20574;-64
2023/04/05 08:44:10;;;;;;;7.23;6.57;;;9.00;81.20;;;9.87;37.08;98338.13;5240980;28;20201;-63
2023/04/05 08:46:44;;;;;;;7.73;7.03;;;9.10;77.70;;;9.92;38.45;98337.66;5234062;28;20205;-63
2023/04/05 08:49:17;;;;;;;8.03;7.27;;;9.10;78.70;;;9.93;37.41;98333.47;5235001;28;20227;-64
2023/04/05 08:51:50;;;;;;;7.40;6.80;;;9.40;76.20;;;9.64;36.67;98334.03;5238316;28;20205;-65
2023/04/05 08:54:23;;;;;;;7.10;6.60;;;8.90;76.50;;;9.66;37.24;98332.47;5229000;28;20225;-63
2023/04/05 08:56:59;;;;;;;7.13;6.53;;;8.90;78.40;;;9.31;38.30;98337.72;5238423;28;20242;-62
2023/04/05 08:59:36;;;;;;;7.33;6.73;;;8.60;77.70;;;9.40;39.74;98341.78;5237956;28;20276;-64
2023/04/05 09:02:16;;;;;;;7.50;6.87;;;8.50;81.00;;;9.76;39.41;98329.78;5229852;28;20286;-63
2023/04/05 09:04:50;;;;;;;7.33;6.70;;;8.90;80.70;;;10.01;35.93;98326.31;5228780;28;20220;-64
2023/04/05 09:07:25;;;;;;;7.17;6.50;;;9.30;74.90;;;10.00;38.33;98330.53;5228502;28;20196;-64
2023/04/05 09:10:00;;;;;;;6.30;5.70;;;9.30;78.20;;;10.14;35.27;98324.66;5239930;28;20207;-64
2023/04/05 09:12:37;;;;;;;6.90;6.40;;;9.50;74.30;;;10.21;34.84;98327.63;5232847;28;20204;-63
2023/04/05 09:15:11;;;;;;;6.40;5.90;;;9.60;72.20;;;10.11;33.92;98328.69;5225730;28;20596;-64
2023/04/05 09:17:44;;;;;;;6.50;6.00;;;9.40;71.60;;;10.07;34.38;98335.28;5228907;28;20680;-64
2023/04/05 09:20:17;;;;;;;6.18;5.68;;;9.30;72.10;;;10.19;37.77;98330.09;5241035;28;20201;-66
2023/04/05 09:22:50;;;;;;;6.67;6.03;;;9.40;78.00;;;9.93;37.00;98341.13;5232238;28;20215;-64
2023/04/05 09:25:38;;;;;;;6.70;6.10;;;9.20;74.80;;;10.15;33.74;98335.75;5229884;28;20223;-65
2023/04/05 09:28:12;;;;;;;6.93;6.33;;;9.50;71.80;;;10.17;36.13;98338.44;5237629;28;20290;-64
2023/04/05 09:30:46;;;;;;;7.00;6.40;;;9.60;75.00;;;10.02;35.51;98339.19;5228237;28;20204;-65
2023/04/05 09:33:21;;;;;;;7.33;6.73;;;9.40;75.30;;;9.77;33.81;98331.53;5230830;28;20556;-64
2023/04/05 09:35:55;;;;;;;6.80;6.13;;;9.30;70.70;;;9.58;35.33;98328.50;5240796;28;20220;-64
2023/04/05 09:38:43;;;;;;;7.20;6.70;;;8.90;71.90;;;9.70;35.67;98332.81;5237109;28;20208;-64
2023/04/05 09:41:16;;;;;;;6.73;6.13;;;9.00;72.80;;;9.98;35.17;98329.53;5233364;28;20203;-65
2023/04/05 09:43:53;;;;;;;6.93;6.23;;;9.30;73.10;;;10.11;34.98;98333.81;5229580;28;20204;-64
2023/04/05 09:46:32;;;;;;;7.37;6.80;;;9.70;70.80;;;10.07;34.25;98325.06;5233670;28;20211;-63
2023/04/05 09:49:08;;;;;;;7.10;6.50;;;9.80;69.90;;;10.09;34.04;98318.38;5235192;28;20224;-64
2023/04/05 09:51:42;;;;;;;7.27;6.60;;;9.80;70.60;;;10.10;34.43;98317.59;5233732;28;20238;-64
2023/04/05 09:54:16;;;;;;;6.90;6.30;;;9.80;69.80;;;9.35;35.59;98326.94;5236311;28;20648;-64
2023/04/05 09:56:56;;;;;;;6.87;6.37;;;9.10;71.30;;;9.83;36.20;98321.75;5234657;28;20859;-64
2023/04/05 09:59:33;;;;;;;7.30;6.70;;;9.30;74.10;;;9.75;36.64;98322.88;5233921;28;20227;-64
2023/04/05 10:02:06;;;;;;;7.83;7.23;;;9.30;73.00;;;9.59;34.91;98315.00;5235989;28;20250;-64
2023/04/05 10:04:40;;;;;;;7.07;6.57;;;9.10;71.40;;;9.62;34.68;98312.66;5241053;28;20316;-64
2023/04/05 10:07:16;;;;;;;6.57;6.10;;;9.10;71.60;;;9.71;36.97;98308.16;5240748;28;20291;-64
2023/04/05 10:09:49;;;;;;;7.30;6.68;;;9.10;74.10;;;9.92;35.34;98307.03;5232496;28;20314;-64
2023/04/05 10:12:27;;;;;;;6.60;6.10;;;9.40;71.60;;;10.04;35.10;98303.53;5238648;28;20200;-65
2023/04/05 10:15:01;;;;;;;6.60;6.00;;;9.40;72.80;;;10.26;35.03;98299.03;5235553;28;20217;-64
2023/04/05 10:17:42;;;;;;;6.88;6.28;;;9.50;74.20;;;10.47;34.77;98299.59;5240552;28;20238;-64
2023/04/05 10:20:19;;;;;;;6.63;6.13;;;9.70;71.30;;;10.62;33.55;98304.81;5231975;28;20625;-64
2023/04/05 10:23:01;;;;;;;7.30;6.60;;;10.00;70.50;;;10.50;32.75;98299.78;5238113;28;20200;-65
2023/04/05 10:25:50;;;;;;;7.72;7.03;;;9.90;69.10;;;10.48;33.07;98296.25;5235694;28;20742;-65
2023/04/05 10:28:31;;;;;;;7.10;6.50;;;10.00;68.00;;;9.79;33.63;98289.13;5244279;28;20322;-64
2023/04/05 10:31:12;;;;;;;7.20;6.63;;;9.40;67.90;;;10.03;35.34;98289.88;5238642;28;20197;-63
2023/04/05 10:34:05;;;;;;;6.87;6.13;;;9.40;70.80;;;10.27;34.01;98289.72;5238917;28;20644;-62
2023/04/05 10:36:51;;;;;;;7.43;6.87;;;9.60;70.40;;;10.28;34.74;98292.41;5243721;28;20203;-63
2023/04/05 10:39:28;;;;;;;7.03;6.33;;;9.70;69.90;;;10.27;34.34;98288.09;5240719;28;20196;-64
2023/04/05 10:42:13;;;;;;;6.80;6.30;;;9.60;71.30;;;10.43;34.17;98289.06;5241759;28;20596;-65
2023/04/05 10:44:51;;;;;;;6.75;6.25;;;9.80;70.10;;;10.53;33.93;98294.88;5241294;28;20228;-63
2023/04/05 10:47:28;;;;;;;7.70;7.00;;;9.90;69.10;;;10.44;33.65;98283.16;5243704;28;20216;-64